sensor_id;sensor_type;location;lat;lon;timestamp;P1;durP1;ratioP1;P2;durP2;ratioP2
12968;SDS011;6549;53.128;8.182;2023-01-19T00:02:47;17.42;;;11.73;;
12968;SDS011;6549;53.128;8.182;2023-01-19T00:05:48;16.50;;;11.50;;
12968;SDS011;6549;53.128;8.182;2023-01-19T00:08:48;17.20;;;11.82;;
12968;SDS011;6549;53.128;8.182;2023-01-19T00:11:51;16.90;;;10.93;;
12968;SDS011;6549;53.128;8.182;2023-01-19T00:14:51;18.63;;;10.55;;
12968;SDS011;6549;53.128;8.182;2023-01-19T00:17:52;21.02;;;10.85;;
12968;SDS011;6549;53.128;8.182;2023-01-19T00:20:52;18.58;;;10.75;;
12968;SDS011;6549;53.128;8.182;2023-01-19T00:23:52;17.23;;;11.05;;
12968;SDS011;6549;53.128;8.182;2023-01-19T00:26:53;17.10;;;11.85;;
12968;SDS011;6549;53.128;8.182;2023-01-19T00:29:53;16.63;;;10.40;;
12968;SDS011;6549;53.128;8.182;2023-01-19T00:32:53;16.58;;;11.30;;
12968;SDS011;6549;53.128;8.182;2023-01-19T00:35:54;18.67;;;11.35;;
12968;SDS011;6549;53.128;8.182;2023-01-19T00:38:55;15.50;;;10.18;;
12968;SDS011;6549;53.128;8.182;2023-01-19T00:41:55;17.92;;;12.25;;
12968;SDS011;6549;53.128;8.182;2023-01-19T00:45:18;16.95;;;11.82;;
12968;SDS011;6549;53.128;8.182;2023-01-19T00:48:21;17.35;;;12.45;;
12968;SDS011;6549;53.128;8.182;2023-01-19T00:51:21;16.50;;;11.40;;
12968;SDS011;6549;53.128;8.182;2023-01-19T00:54:21;19.02;;;13.30;;
12968;SDS011;6549;53.128;8.182;2023-01-19T00:57:22;19.50;;;13.15;;
12968;SDS011;6549;53.128;8.182;2023-01-19T01:00:22;18.73;;;13.00;;
12968;SDS011;6549;53.128;8.182;2023-01-19T01:03:24;17.13;;;12.27;;
12968;SDS011;6549;53.128;8.182;2023-01-19T01:09:27;17.67;;;12.70;;
12968;SDS011;6549;53.128;8.182;2023-01-19T01:12:28;17.80;;;12.85;;
12968;SDS011;6549;53.128;8.182;2023-01-19T01:15:28;19.58;;;12.95;;
12968;SDS011;6549;53.128;8.182;2023-01-19T01:18:29;15.50;;;12.43;;
12968;SDS011;6549;53.128;8.182;2023-01-19T01:21:30;18.35;;;12.82;;
12968;SDS011;6549;53.128;8.182;2023-01-19T01:24:30;18.65;;;12.18;;
12968;SDS011;6549;53.128;8.182;2023-01-19T01:27:31;21.67;;;13.23;;
12968;SDS011;6549;53.128;8.182;2023-01-19T01:30:32;19.20;;;13.30;;
12968;SDS011;6549;53.128;8.182;2023-01-19T01:33:32;17.75;;;12.70;;
12968;SDS011;6549;53.128;8.182;2023-01-19T01:36:32;18.33;;;12.77;;
12968;SDS011;6549;53.128;8.182;2023-01-19T01:39:34;16.60;;;12.27;;
12968;SDS011;6549;53.128;8.182;2023-01-19T01:42:35;16.20;;;12.13;;
12968;SDS011;6549;53.128;8.182;2023-01-19T01:45:36;17.42;;;12.93;;
12968;SDS011;6549;53.128;8.182;2023-01-19T01:48:41;17.42;;;13.18;;
12968;SDS011;6549;53.128;8.182;2023-01-19T01:51:45;16.08;;;12.48;;
12968;SDS011;6549;53.128;8.182;2023-01-19T01:54:48;18.63;;;12.98;;
12968;SDS011;6549;53.128;8.182;2023-01-19T01:57:50;18.73;;;13.43;;
12968;SDS011;6549;53.128;8.182;2023-01-19T02:00:56;17.17;;;12.98;;
12968;SDS011;6549;53.128;8.182;2023-01-19T02:04:15;19.45;;;12.38;;
12968;SDS011;6549;53.128;8.182;2023-01-19T02:07:24;18.17;;;13.13;;
12968;SDS011;6549;53.128;8.182;2023-01-19T02:10:47;18.30;;;12.93;;
12968;SDS011;6549;53.128;8.182;2023-01-19T02:14:06;16.58;;;13.02;;
12968;SDS011;6549;53.128;8.182;2023-01-19T02:17:07;18.08;;;12.82;;
12968;SDS011;6549;53.128;8.182;2023-01-19T02:20:07;17.80;;;13.20;;
12968;SDS011;6549;53.128;8.182;2023-01-19T02:23:12;17.73;;;13.52;;
12968;SDS011;6549;53.128;8.182;2023-01-19T02:26:23;16.95;;;12.93;;
12968;SDS011;6549;53.128;8.182;2023-01-19T02:29:27;16.80;;;12.93;;
12968;SDS011;6549;53.128;8.182;2023-01-19T02:32:27;18.65;;;14.50;;
12968;SDS011;6549;53.128;8.182;2023-01-19T02:35:28;16.85;;;13.32;;
12968;SDS011;6549;53.128;8.182;2023-01-19T02:38:30;18.83;;;14.70;;
12968;SDS011;6549;53.128;8.182;2023-01-19T02:41:33;20.45;;;14.88;;
12968;SDS011;6549;53.128;8.182;2023-01-19T02:44:38;18.92;;;14.88;;
12968;SDS011;6549;53.128;8.182;2023-01-19T02:47:43;20.48;;;15.52;;
12968;SDS011;6549;53.128;8.182;2023-01-19T02:50:46;21.05;;;15.85;;
12968;SDS011;6549;53.128;8.182;2023-01-19T02:57:25;19.88;;;15.38;;
12968;SDS011;6549;53.128;8.182;2023-01-19T03:00:58;21.55;;;15.13;;
12968;SDS011;6549;53.128;8.182;2023-01-19T03:04:25;20.00;;;15.90;;
12968;SDS011;6549;53.128;8.182;2023-01-19T03:08:07;22.02;;;15.98;;
12968;SDS011;6549;53.128;8.182;2023-01-19T03:11:06;19.30;;;15.07;;
12968;SDS011;6549;53.128;8.182;2023-01-19T03:14:12;20.65;;;15.38;;
12968;SDS011;6549;53.128;8.182;2023-01-19T03:17:17;18.83;;;15.13;;
12968;SDS011;6549;53.128;8.182;2023-01-19T03:20:20;21.92;;;16.15;;
12968;SDS011;6549;53.128;8.182;2023-01-19T03:23:25;23.27;;;15.52;;
12968;SDS011;6549;53.128;8.182;2023-01-19T03:26:29;19.95;;;15.63;;
12968;SDS011;6549;53.128;8.182;2023-01-19T03:29:34;20.17;;;15.23;;
12968;SDS011;6549;53.128;8.182;2023-01-19T03:32:40;19.92;;;14.88;;
12968;SDS011;6549;53.128;8.182;2023-01-19T03:35:44;19.75;;;14.82;;
12968;SDS011;6549;53.128;8.182;2023-01-19T03:38:48;20.95;;;15.63;;
12968;SDS011;6549;53.128;8.182;2023-01-19T03:41:54;20.58;;;15.27;;
12968;SDS011;6549;53.128;8.182;2023-01-19T03:45:04;19.63;;;14.93;;
12968;SDS011;6549;53.128;8.182;2023-01-19T03:48:06;21.17;;;15.57;;
12968;SDS011;6549;53.128;8.182;2023-01-19T03:51:07;21.45;;;15.65;;
12968;SDS011;6549;53.128;8.182;2023-01-19T03:54:08;23.00;;;15.93;;
12968;SDS011;6549;53.128;8.182;2023-01-19T03:57:09;21.17;;;15.32;;
12968;SDS011;6549;53.128;8.182;2023-01-19T04:00:10;22.60;;;16.52;;
12968;SDS011;6549;53.128;8.182;2023-01-19T04:03:14;22.10;;;15.05;;
12968;SDS011;6549;53.128;8.182;2023-01-19T04:06:17;22.50;;;15.70;;
12968;SDS011;6549;53.128;8.182;2023-01-19T04:09:18;22.80;;;16.37;;
12968;SDS011;6549;53.128;8.182;2023-01-19T04:12:18;20.25;;;14.30;;
12968;SDS011;6549;53.128;8.182;2023-01-19T04:15:19;22.20;;;16.08;;
12968;SDS011;6549;53.128;8.182;2023-01-19T04:18:19;21.75;;;15.32;;
12968;SDS011;6549;53.128;8.182;2023-01-19T04:21:20;19.48;;;14.77;;
12968;SDS011;6549;53.128;8.182;2023-01-19T04:24:20;23.17;;;15.48;;
12968;SDS011;6549;53.128;8.182;2023-01-19T04:27:21;21.35;;;15.27;;
12968;SDS011;6549;53.128;8.182;2023-01-19T04:30:21;20.20;;;15.40;;
12968;SDS011;6549;53.128;8.182;2023-01-19T04:33:22;23.05;;;15.82;;
12968;SDS011;6549;53.128;8.182;2023-01-19T04:36:22;23.10;;;16.02;;
12968;SDS011;6549;53.128;8.182;2023-01-19T04:39:22;25.80;;;17.40;;
12968;SDS011;6549;53.128;8.182;2023-01-19T04:42:23;24.25;;;16.35;;
12968;SDS011;6549;53.128;8.182;2023-01-19T04:45:23;25.58;;;17.52;;
12968;SDS011;6549;53.128;8.182;2023-01-19T04:48:23;25.05;;;18.20;;
12968;SDS011;6549;53.128;8.182;2023-01-19T04:51:24;26.48;;;16.95;;
12968;SDS011;6549;53.128;8.182;2023-01-19T04:54:24;26.25;;;17.70;;
12968;SDS011;6549;53.128;8.182;2023-01-19T04:57:25;29.15;;;17.95;;
12968;SDS011;6549;53.128;8.182;2023-01-19T05:00:26;29.70;;;19.58;;
12968;SDS011;6549;53.128;8.182;2023-01-19T05:03:26;27.17;;;18.17;;
12968;SDS011;6549;53.128;8.182;2023-01-19T05:06:26;27.58;;;18.60;;
12968;SDS011;6549;53.128;8.182;2023-01-19T05:09:27;29.80;;;19.63;;
12968;SDS011;6549;53.128;8.182;2023-01-19T05:12:27;27.20;;;18.73;;
12968;SDS011;6549;53.128;8.182;2023-01-19T05:15:27;25.98;;;18.05;;
12968;SDS011;6549;53.128;8.182;2023-01-19T05:18:28;31.27;;;19.77;;
12968;SDS011;6549;53.128;8.182;2023-01-19T05:21:34;29.15;;;18.73;;
12968;SDS011;6549;53.128;8.182;2023-01-19T05:24:35;28.55;;;18.58;;
12968;SDS011;6549;53.128;8.182;2023-01-19T05:27:35;33.58;;;20.88;;
12968;SDS011;6549;53.128;8.182;2023-01-19T05:30:36;32.67;;;19.75;;
12968;SDS011;6549;53.128;8.182;2023-01-19T05:33:37;31.83;;;19.88;;
12968;SDS011;6549;53.128;8.182;2023-01-19T05:36:37;32.53;;;19.55;;
12968;SDS011;6549;53.128;8.182;2023-01-19T05:39:38;30.38;;;20.02;;
12968;SDS011;6549;53.128;8.182;2023-01-19T05:42:38;30.13;;;19.27;;
12968;SDS011;6549;53.128;8.182;2023-01-19T05:45:44;31.83;;;19.73;;
12968;SDS011;6549;53.128;8.182;2023-01-19T05:48:44;30.17;;;19.55;;
12968;SDS011;6549;53.128;8.182;2023-01-19T05:51:45;37.08;;;20.83;;
12968;SDS011;6549;53.128;8.182;2023-01-19T05:54:45;28.33;;;18.55;;
12968;SDS011;6549;53.128;8.182;2023-01-19T05:57:47;30.17;;;18.85;;
12968;SDS011;6549;53.128;8.182;2023-01-19T06:00:47;29.85;;;19.38;;
12968;SDS011;6549;53.128;8.182;2023-01-19T06:03:47;29.98;;;20.17;;
12968;SDS011;6549;53.128;8.182;2023-01-19T06:06:48;32.20;;;19.83;;
12968;SDS011;6549;53.128;8.182;2023-01-19T06:09:49;31.00;;;20.15;;
12968;SDS011;6549;53.128;8.182;2023-01-19T06:12:49;31.40;;;19.17;;
12968;SDS011;6549;53.128;8.182;2023-01-19T06:15:55;28.73;;;18.57;;
12968;SDS011;6549;53.128;8.182;2023-01-19T06:18:57;30.23;;;19.85;;
12968;SDS011;6549;53.128;8.182;2023-01-19T06:21:57;30.25;;;19.55;;
12968;SDS011;6549;53.128;8.182;2023-01-19T06:24:57;29.83;;;18.45;;
12968;SDS011;6549;53.128;8.182;2023-01-19T06:27:58;28.88;;;18.23;;
12968;SDS011;6549;53.128;8.182;2023-01-19T06:30:58;34.05;;;20.10;;
12968;SDS011;6549;53.128;8.182;2023-01-19T06:33:58;28.25;;;19.08;;
12968;SDS011;6549;53.128;8.182;2023-01-19T06:36:59;31.58;;;20.27;;
12968;SDS011;6549;53.128;8.182;2023-01-19T06:39:59;30.55;;;19.45;;
12968;SDS011;6549;53.128;8.182;2023-01-19T06:42:59;30.65;;;20.10;;
12968;SDS011;6549;53.128;8.182;2023-01-19T06:46:00;29.65;;;18.77;;
12968;SDS011;6549;53.128;8.182;2023-01-19T06:49:01;27.27;;;17.83;;
12968;SDS011;6549;53.128;8.182;2023-01-19T06:52:01;28.83;;;18.60;;
12968;SDS011;6549;53.128;8.182;2023-01-19T06:55:02;30.80;;;19.65;;
12968;SDS011;6549;53.128;8.182;2023-01-19T06:58:02;28.65;;;18.50;;
12968;SDS011;6549;53.128;8.182;2023-01-19T07:01:05;29.90;;;19.10;;
12968;SDS011;6549;53.128;8.182;2023-01-19T07:04:06;29.00;;;18.38;;
12968;SDS011;6549;53.128;8.182;2023-01-19T07:07:06;31.67;;;19.35;;
12968;SDS011;6549;53.128;8.182;2023-01-19T07:10:07;28.42;;;18.52;;
12968;SDS011;6549;53.128;8.182;2023-01-19T07:13:10;28.80;;;18.30;;
12968;SDS011;6549;53.128;8.182;2023-01-19T07:16:11;28.65;;;18.70;;
12968;SDS011;6549;53.128;8.182;2023-01-19T07:19:12;25.65;;;16.27;;
12968;SDS011;6549;53.128;8.182;2023-01-19T07:22:13;30.30;;;18.77;;
12968;SDS011;6549;53.128;8.182;2023-01-19T07:25:13;28.13;;;18.38;;
12968;SDS011;6549;53.128;8.182;2023-01-19T07:28:14;28.88;;;18.30;;
12968;SDS011;6549;53.128;8.182;2023-01-19T07:31:15;26.58;;;17.90;;
12968;SDS011;6549;53.128;8.182;2023-01-19T07:34:16;28.58;;;19.25;;
12968;SDS011;6549;53.128;8.182;2023-01-19T07:37:17;26.63;;;17.88;;
12968;SDS011;6549;53.128;8.182;2023-01-19T07:40:17;28.92;;;18.38;;
12968;SDS011;6549;53.128;8.182;2023-01-19T07:43:17;28.35;;;18.77;;
12968;SDS011;6549;53.128;8.182;2023-01-19T07:46:18;30.10;;;18.67;;
12968;SDS011;6549;53.128;8.182;2023-01-19T07:49:19;28.27;;;18.52;;
12968;SDS011;6549;53.128;8.182;2023-01-19T07:52:19;28.35;;;17.80;;
12968;SDS011;6549;53.128;8.182;2023-01-19T07:55:22;25.98;;;16.73;;
12968;SDS011;6549;53.128;8.182;2023-01-19T07:58:23;27.15;;;17.40;;
12968;SDS011;6549;53.128;8.182;2023-01-19T08:01:24;27.25;;;17.92;;
12968;SDS011;6549;53.128;8.182;2023-01-19T08:04:24;29.00;;;17.73;;
12968;SDS011;6549;53.128;8.182;2023-01-19T08:07:25;25.88;;;16.20;;
12968;SDS011;6549;53.128;8.182;2023-01-19T08:10:26;27.30;;;17.50;;
12968;SDS011;6549;53.128;8.182;2023-01-19T08:13:27;29.17;;;16.40;;
12968;SDS011;6549;53.128;8.182;2023-01-19T08:16:28;26.17;;;16.38;;
12968;SDS011;6549;53.128;8.182;2023-01-19T08:19:28;25.67;;;16.40;;
12968;SDS011;6549;53.128;8.182;2023-01-19T08:22:28;25.55;;;16.70;;
12968;SDS011;6549;53.128;8.182;2023-01-19T08:25:32;25.92;;;16.17;;
12968;SDS011;6549;53.128;8.182;2023-01-19T08:28:44;23.45;;;15.55;;
12968;SDS011;6549;53.128;8.182;2023-01-19T08:31:44;23.70;;;15.98;;
12968;SDS011;6549;53.128;8.182;2023-01-19T08:34:44;22.52;;;15.00;;
12968;SDS011;6549;53.128;8.182;2023-01-19T08:37:45;20.77;;;13.27;;
12968;SDS011;6549;53.128;8.182;2023-01-19T08:40:45;22.08;;;14.55;;
12968;SDS011;6549;53.128;8.182;2023-01-19T08:43:45;25.65;;;15.82;;
12968;SDS011;6549;53.128;8.182;2023-01-19T08:46:46;22.55;;;14.43;;
12968;SDS011;6549;53.128;8.182;2023-01-19T08:49:46;21.60;;;14.32;;
12968;SDS011;6549;53.128;8.182;2023-01-19T08:52:47;23.58;;;14.77;;
12968;SDS011;6549;53.128;8.182;2023-01-19T08:55:47;23.55;;;14.45;;
12968;SDS011;6549;53.128;8.182;2023-01-19T08:58:48;23.45;;;15.50;;
12968;SDS011;6549;53.128;8.182;2023-01-19T09:01:49;20.38;;;13.68;;
12968;SDS011;6549;53.128;8.182;2023-01-19T09:04:49;19.67;;;13.15;;
12968;SDS011;6549;53.128;8.182;2023-01-19T09:07:49;22.25;;;14.07;;
12968;SDS011;6549;53.128;8.182;2023-01-19T09:10:50;21.63;;;12.82;;
12968;SDS011;6549;53.128;8.182;2023-01-19T09:13:50;18.85;;;12.23;;
12968;SDS011;6549;53.128;8.182;2023-01-19T09:16:51;19.13;;;12.43;;
12968;SDS011;6549;53.128;8.182;2023-01-19T09:19:52;21.52;;;12.02;;
12968;SDS011;6549;53.128;8.182;2023-01-19T09:22:53;21.85;;;12.10;;
12968;SDS011;6549;53.128;8.182;2023-01-19T09:25:55;18.42;;;11.93;;
12968;SDS011;6549;53.128;8.182;2023-01-19T09:28:57;16.67;;;11.38;;
12968;SDS011;6549;53.128;8.182;2023-01-19T09:31:58;17.63;;;10.77;;
12968;SDS011;6549;53.128;8.182;2023-01-19T09:34:58;16.48;;;10.02;;
12968;SDS011;6549;53.128;8.182;2023-01-19T09:37:59;15.70;;;9.38;;
12968;SDS011;6549;53.128;8.182;2023-01-19T09:40:59;14.75;;;9.13;;
12968;SDS011;6549;53.128;8.182;2023-01-19T09:44:00;14.80;;;8.38;;
12968;SDS011;6549;53.128;8.182;2023-01-19T09:47:00;13.68;;;8.85;;
12968;SDS011;6549;53.128;8.182;2023-01-19T09:50:09;14.13;;;8.43;;
12968;SDS011;6549;53.128;8.182;2023-01-19T09:53:19;16.35;;;8.93;;
12968;SDS011;6549;53.128;8.182;2023-01-19T09:56:28;14.07;;;8.85;;
12968;SDS011;6549;53.128;8.182;2023-01-19T09:59:31;13.75;;;8.95;;
12968;SDS011;6549;53.128;8.182;2023-01-19T10:02:36;13.10;;;7.65;;
12968;SDS011;6549;53.128;8.182;2023-01-19T10:08:59;11.30;;;6.50;;
12968;SDS011;6549;53.128;8.182;2023-01-19T10:19:01;11.35;;;3.85;;
12968;SDS011;6549;53.128;8.182;2023-01-19T10:22:20;13.63;;;3.47;;
12968;SDS011;6549;53.128;8.182;2023-01-19T10:25:22;9.65;;;2.92;;
12968;SDS011;6549;53.128;8.182;2023-01-19T10:28:24;10.15;;;2.90;;
12968;SDS011;6549;53.128;8.182;2023-01-19T10:31:25;11.40;;;3.20;;
12968;SDS011;6549;53.128;8.182;2023-01-19T10:34:26;5.25;;;2.17;;
12968;SDS011;6549;53.128;8.182;2023-01-19T10:37:27;10.77;;;2.15;;
12968;SDS011;6549;53.128;8.182;2023-01-19T10:44:00;10.02;;;2.50;;
12968;SDS011;6549;53.128;8.182;2023-01-19T10:47:02;8.38;;;2.75;;
12968;SDS011;6549;53.128;8.182;2023-01-19T10:50:17;8.20;;;2.95;;
12968;SDS011;6549;53.128;8.182;2023-01-19T10:53:28;6.13;;;2.40;;
12968;SDS011;6549;53.128;8.182;2023-01-19T10:56:35;13.85;;;2.75;;
12968;SDS011;6549;53.128;8.182;2023-01-19T10:59:47;10.93;;;2.53;;
12968;SDS011;6549;53.128;8.182;2023-01-19T11:02:49;6.13;;;2.10;;
12968;SDS011;6549;53.128;8.182;2023-01-19T11:05:50;7.93;;;2.30;;
12968;SDS011;6549;53.128;8.182;2023-01-19T11:08:51;8.50;;;2.67;;
12968;SDS011;6549;53.128;8.182;2023-01-19T11:11:52;7.60;;;2.88;;
12968;SDS011;6549;53.128;8.182;2023-01-19T11:14:54;6.47;;;2.50;;
12968;SDS011;6549;53.128;8.182;2023-01-19T11:17:57;10.73;;;3.67;;
12968;SDS011;6549;53.128;8.182;2023-01-19T11:21:01;8.73;;;2.95;;
12968;SDS011;6549;53.128;8.182;2023-01-19T11:24:05;8.02;;;2.53;;
12968;SDS011;6549;53.128;8.182;2023-01-19T11:27:15;13.05;;;2.70;;
12968;SDS011;6549;53.128;8.182;2023-01-19T11:30:17;7.90;;;2.25;;
12968;SDS011;6549;53.128;8.182;2023-01-19T11:33:25;11.23;;;2.40;;
12968;SDS011;6549;53.128;8.182;2023-01-19T11:36:33;5.50;;;1.67;;
12968;SDS011;6549;53.128;8.182;2023-01-19T11:39:45;7.45;;;1.73;;
12968;SDS011;6549;53.128;8.182;2023-01-19T11:42:49;10.10;;;1.73;;
12968;SDS011;6549;53.128;8.182;2023-01-19T11:45:50;9.38;;;2.05;;
12968;SDS011;6549;53.128;8.182;2023-01-19T11:52:47;5.60;;;1.65;;
12968;SDS011;6549;53.128;8.182;2023-01-19T11:56:08;12.10;;;1.60;;
12968;SDS011;6549;53.128;8.182;2023-01-19T11:59:10;6.05;;;1.42;;
12968;SDS011;6549;53.128;8.182;2023-01-19T12:05:23;8.00;;;1.60;;
12968;SDS011;6549;53.128;8.182;2023-01-19T12:08:32;7.40;;;1.67;;
12968;SDS011;6549;53.128;8.182;2023-01-19T12:11:40;7.82;;;1.58;;
12968;SDS011;6549;53.128;8.182;2023-01-19T12:14:58;7.50;;;1.40;;
12968;SDS011;6549;53.128;8.182;2023-01-19T12:17:59;8.73;;;1.30;;
12968;SDS011;6549;53.128;8.182;2023-01-19T12:21:01;4.70;;;1.38;;
12968;SDS011;6549;53.128;8.182;2023-01-19T12:24:12;12.75;;;2.05;;
12968;SDS011;6549;53.128;8.182;2023-01-19T12:27:20;8.95;;;1.70;;
12968;SDS011;6549;53.128;8.182;2023-01-19T12:30:33;10.90;;;1.70;;
12968;SDS011;6549;53.128;8.182;2023-01-19T12:33:37;6.80;;;1.50;;
12968;SDS011;6549;53.128;8.182;2023-01-19T12:36:38;7.68;;;1.20;;
12968;SDS011;6549;53.128;8.182;2023-01-19T12:39:45;7.25;;;1.13;;
12968;SDS011;6549;53.128;8.182;2023-01-19T12:42:54;7.72;;;0.93;;
12968;SDS011;6549;53.128;8.182;2023-01-19T12:46:16;6.97;;;1.38;;
12968;SDS011;6549;53.128;8.182;2023-01-19T12:49:31;6.35;;;1.05;;
12968;SDS011;6549;53.128;8.182;2023-01-19T12:52:37;8.77;;;1.60;;
12968;SDS011;6549;53.128;8.182;2023-01-19T12:55:40;5.85;;;1.15;;
12968;SDS011;6549;53.128;8.182;2023-01-19T12:58:46;4.97;;;1.10;;
12968;SDS011;6549;53.128;8.182;2023-01-19T13:08:21;7.90;;;1.35;;
12968;SDS011;6549;53.128;8.182;2023-01-19T13:11:23;3.47;;;0.80;;
12968;SDS011;6549;53.128;8.182;2023-01-19T13:17:52;6.63;;;1.30;;
12968;SDS011;6549;53.128;8.182;2023-01-19T13:21:00;6.10;;;1.42;;
12968;SDS011;6549;53.128;8.182;2023-01-19T13:24:05;6.43;;;1.20;;
12968;SDS011;6549;53.128;8.182;2023-01-19T13:27:09;8.52;;;1.23;;
12968;SDS011;6549;53.128;8.182;2023-01-19T13:30:14;4.65;;;1.30;;
12968;SDS011;6549;53.128;8.182;2023-01-19T13:33:19;8.02;;;1.63;;
12968;SDS011;6549;53.128;8.182;2023-01-19T13:39:39;7.78;;;1.08;;
12968;SDS011;6549;53.128;8.182;2023-01-19T13:42:43;10.75;;;1.25;;
12968;SDS011;6549;53.128;8.182;2023-01-19T13:45:45;3.90;;;1.38;;
12968;SDS011;6549;53.128;8.182;2023-01-19T13:48:51;6.47;;;1.13;;
12968;SDS011;6549;53.128;8.182;2023-01-19T13:52:10;7.47;;;1.10;;
12968;SDS011;6549;53.128;8.182;2023-01-19T13:55:14;7.03;;;1.85;;
12968;SDS011;6549;53.128;8.182;2023-01-19T13:58:20;6.70;;;1.35;;
12968;SDS011;6549;53.128;8.182;2023-01-19T14:01:22;6.50;;;1.50;;
12968;SDS011;6549;53.128;8.182;2023-01-19T14:04:27;7.28;;;1.60;;
12968;SDS011;6549;53.128;8.182;2023-01-19T14:07:29;6.00;;;1.15;;
12968;SDS011;6549;53.128;8.182;2023-01-19T14:10:30;7.03;;;1.35;;
12968;SDS011;6549;53.128;8.182;2023-01-19T14:13:31;6.60;;;2.03;;
12968;SDS011;6549;53.128;8.182;2023-01-19T14:19:50;6.57;;;1.42;;
12968;SDS011;6549;53.128;8.182;2023-01-19T14:22:52;6.18;;;1.48;;
12968;SDS011;6549;53.128;8.182;2023-01-19T14:25:52;7.63;;;1.50;;
12968;SDS011;6549;53.128;8.182;2023-01-19T14:28:53;8.85;;;2.22;;
12968;SDS011;6549;53.128;8.182;2023-01-19T14:38:10;4.60;;;1.87;;
12968;SDS011;6549;53.128;8.182;2023-01-19T14:41:20;2.95;;;1.17;;
12968;SDS011;6549;53.128;8.182;2023-01-19T14:44:27;4.70;;;1.85;;
12968;SDS011;6549;53.128;8.182;2023-01-19T14:47:32;8.95;;;1.52;;
12968;SDS011;6549;53.128;8.182;2023-01-19T14:50:36;5.38;;;1.25;;
12968;SDS011;6549;53.128;8.182;2023-01-19T14:53:39;4.80;;;1.60;;
12968;SDS011;6549;53.128;8.182;2023-01-19T14:56:47;4.85;;;1.58;;
12968;SDS011;6549;53.128;8.182;2023-01-19T14:59:47;4.30;;;1.45;;
12968;SDS011;6549;53.128;8.182;2023-01-19T15:02:49;3.78;;;1.35;;
12968;SDS011;6549;53.128;8.182;2023-01-19T15:05:50;3.95;;;1.63;;
12968;SDS011;6549;53.128;8.182;2023-01-19T15:08:51;4.53;;;2.05;;
12968;SDS011;6549;53.128;8.182;2023-01-19T15:11:52;4.30;;;1.45;;
12968;SDS011;6549;53.128;8.182;2023-01-19T15:14:52;6.75;;;1.77;;
12968;SDS011;6549;53.128;8.182;2023-01-19T15:17:53;5.93;;;1.90;;
12968;SDS011;6549;53.128;8.182;2023-01-19T15:20:53;7.50;;;2.83;;
12968;SDS011;6549;53.128;8.182;2023-01-19T15:23:54;6.80;;;2.30;;
12968;SDS011;6549;53.128;8.182;2023-01-19T15:26:54;6.30;;;2.20;;
12968;SDS011;6549;53.128;8.182;2023-01-19T15:30:00;7.35;;;2.10;;
12968;SDS011;6549;53.128;8.182;2023-01-19T15:33:00;7.80;;;2.15;;
12968;SDS011;6549;53.128;8.182;2023-01-19T15:36:01;7.25;;;2.22;;
12968;SDS011;6549;53.128;8.182;2023-01-19T15:39:01;9.50;;;2.58;;
12968;SDS011;6549;53.128;8.182;2023-01-19T15:42:02;8.10;;;2.15;;
12968;SDS011;6549;53.128;8.182;2023-01-19T15:45:10;8.45;;;2.47;;
12968;SDS011;6549;53.128;8.182;2023-01-19T15:48:26;9.93;;;2.35;;
12968;SDS011;6549;53.128;8.182;2023-01-19T15:51:27;8.70;;;2.70;;
12968;SDS011;6549;53.128;8.182;2023-01-19T15:54:27;8.05;;;1.88;;
12968;SDS011;6549;53.128;8.182;2023-01-19T15:57:27;5.68;;;2.10;;
12968;SDS011;6549;53.128;8.182;2023-01-19T16:00:28;4.50;;;1.48;;
12968;SDS011;6549;53.128;8.182;2023-01-19T16:03:30;12.82;;;2.75;;
12968;SDS011;6549;53.128;8.182;2023-01-19T16:06:31;13.35;;;3.80;;
12968;SDS011;6549;53.128;8.182;2023-01-19T16:09:31;13.43;;;4.50;;
12968;SDS011;6549;53.128;8.182;2023-01-19T16:12:31;12.63;;;4.05;;
12968;SDS011;6549;53.128;8.182;2023-01-19T16:15:35;9.02;;;2.83;;
12968;SDS011;6549;53.128;8.182;2023-01-19T16:18:36;5.60;;;1.95;;
12968;SDS011;6549;53.128;8.182;2023-01-19T16:21:36;8.65;;;2.15;;
12968;SDS011;6549;53.128;8.182;2023-01-19T16:24:37;8.27;;;2.50;;
12968;SDS011;6549;53.128;8.182;2023-01-19T16:27:37;6.70;;;3.38;;
12968;SDS011;6549;53.128;8.182;2023-01-19T16:30:37;8.40;;;3.10;;
12968;SDS011;6549;53.128;8.182;2023-01-19T16:33:38;9.98;;;2.88;;
12968;SDS011;6549;53.128;8.182;2023-01-19T16:36:39;6.32;;;2.83;;
12968;SDS011;6549;53.128;8.182;2023-01-19T16:39:40;9.23;;;4.20;;
12968;SDS011;6549;53.128;8.182;2023-01-19T16:42:43;9.63;;;4.90;;
12968;SDS011;6549;53.128;8.182;2023-01-19T16:45:56;10.30;;;5.00;;
12968;SDS011;6549;53.128;8.182;2023-01-19T16:48:59;10.50;;;5.47;;
12968;SDS011;6549;53.128;8.182;2023-01-19T16:52:03;9.70;;;5.18;;
12968;SDS011;6549;53.128;8.182;2023-01-19T16:55:04;8.48;;;4.90;;
12968;SDS011;6549;53.128;8.182;2023-01-19T16:58:08;9.75;;;3.80;;
12968;SDS011;6549;53.128;8.182;2023-01-19T17:04:10;10.60;;;4.13;;
12968;SDS011;6549;53.128;8.182;2023-01-19T17:07:11;10.75;;;3.90;;
12968;SDS011;6549;53.128;8.182;2023-01-19T17:10:11;7.43;;;3.63;;
12968;SDS011;6549;53.128;8.182;2023-01-19T17:13:12;7.95;;;3.42;;
12968;SDS011;6549;53.128;8.182;2023-01-19T17:16:12;11.95;;;4.50;;
12968;SDS011;6549;53.128;8.182;2023-01-19T17:19:13;9.85;;;3.88;;
12968;SDS011;6549;53.128;8.182;2023-01-19T17:22:15;10.85;;;4.07;;
12968;SDS011;6549;53.128;8.182;2023-01-19T17:25:16;8.38;;;3.97;;
12968;SDS011;6549;53.128;8.182;2023-01-19T17:28:16;10.27;;;4.07;;
12968;SDS011;6549;53.128;8.182;2023-01-19T17:31:18;7.53;;;3.35;;
12968;SDS011;6549;53.128;8.182;2023-01-19T17:34:20;8.68;;;3.42;;
12968;SDS011;6549;53.128;8.182;2023-01-19T17:37:20;9.93;;;4.60;;
12968;SDS011;6549;53.128;8.182;2023-01-19T17:40:21;10.23;;;5.25;;
12968;SDS011;6549;53.128;8.182;2023-01-19T17:43:24;11.25;;;5.55;;
12968;SDS011;6549;53.128;8.182;2023-01-19T17:46:26;12.60;;;5.80;;
12968;SDS011;6549;53.128;8.182;2023-01-19T17:49:27;8.97;;;3.80;;
12968;SDS011;6549;53.128;8.182;2023-01-19T17:52:27;6.50;;;3.60;;
12968;SDS011;6549;53.128;8.182;2023-01-19T17:55:28;7.63;;;3.22;;
12968;SDS011;6549;53.128;8.182;2023-01-19T17:58:29;7.82;;;3.33;;
12968;SDS011;6549;53.128;8.182;2023-01-19T18:01:30;8.07;;;3.58;;
12968;SDS011;6549;53.128;8.182;2023-01-19T18:04:32;9.07;;;3.92;;
12968;SDS011;6549;53.128;8.182;2023-01-19T18:07:32;10.43;;;4.30;;
12968;SDS011;6549;53.128;8.182;2023-01-19T18:10:33;10.18;;;4.15;;
12968;SDS011;6549;53.128;8.182;2023-01-19T18:13:33;11.82;;;4.00;;
12968;SDS011;6549;53.128;8.182;2023-01-19T18:16:34;11.23;;;5.32;;
12968;SDS011;6549;53.128;8.182;2023-01-19T18:19:34;10.45;;;5.30;;
12968;SDS011;6549;53.128;8.182;2023-01-19T18:22:35;17.85;;;6.47;;
12968;SDS011;6549;53.128;8.182;2023-01-19T18:25:35;15.88;;;6.47;;
12968;SDS011;6549;53.128;8.182;2023-01-19T18:28:35;12.52;;;6.30;;
12968;SDS011;6549;53.128;8.182;2023-01-19T18:31:36;14.27;;;6.50;;
12968;SDS011;6549;53.128;8.182;2023-01-19T18:34:36;13.18;;;5.43;;
12968;SDS011;6549;53.128;8.182;2023-01-19T18:37:36;11.30;;;4.53;;
12968;SDS011;6549;53.128;8.182;2023-01-19T18:40:37;8.27;;;3.03;;
12968;SDS011;6549;53.128;8.182;2023-01-19T18:43:39;6.03;;;2.80;;
12968;SDS011;6549;53.128;8.182;2023-01-19T18:46:39;7.20;;;3.28;;
12968;SDS011;6549;53.128;8.182;2023-01-19T18:49:39;11.57;;;4.18;;
12968;SDS011;6549;53.128;8.182;2023-01-19T18:52:40;7.85;;;3.55;;
12968;SDS011;6549;53.128;8.182;2023-01-19T18:55:48;8.48;;;3.72;;
12968;SDS011;6549;53.128;8.182;2023-01-19T18:58:52;11.73;;;5.00;;
12968;SDS011;6549;53.128;8.182;2023-01-19T19:01:52;15.07;;;6.00;;
12968;SDS011;6549;53.128;8.182;2023-01-19T19:04:53;13.70;;;5.68;;
12968;SDS011;6549;53.128;8.182;2023-01-19T19:07:53;9.60;;;3.88;;
12968;SDS011;6549;53.128;8.182;2023-01-19T19:10:53;8.80;;;4.10;;
12968;SDS011;6549;53.128;8.182;2023-01-19T19:13:55;8.07;;;4.15;;